Santa Rosa, CA (95406)

3:44 AM PST on December 26, 2014 (GMT -0800)
Murdock Terrace | Change Station
CLOSE
Current Station
Personal Weather Station
Location: Santa Rosa, CA
Elevation: 184 ft
Nearby Weather Stations

Elev 184 ft 38.46 °N, 122.71 °W | Updated 13 minutes ago

Clear
Clear
37.2 °F
Feels Like 37 °F
N
0.0
Wind Variable Wind from ESE

Today
High -- | Low -- °F
--% Chance of Precip.
Yesterday
High -- | Low -- °F
Precip. -- in
7:26 AM 4:56 PM
Waxing Crescent, 25% visible
Pressure 30.14 in
Visibility 10.0 miles
Clouds Clear
Windchill 37 °F
Dew Point 34 °F
Humidity 89%
Rainfall 0.00 in
Snow Depth Not available.
UV 0 out of 12
Pollen 4.90 out of 12
Air Quality Not available.
Flu Activity Not available.
METAR KSTS 261053Z AUTO 36009KT 10SM CLR 06/02 A3016 RMK AO2 SLP206 T00560022

More Conditions Fewer Conditions

Pressure 30.14 in
Visibility 10.0 miles
Clouds Clear
Windchill 37 °F
Dew Point 34 °F
Humidity 89%
Rainfall 0.00 in
Snow Depth Not available.
UV 0 out of 12
Pollen 4.90 out of 12
Air Quality Not available.
Flu Activity Not available.
METAR KSTS 261053Z AUTO 36009KT 10SM CLR 06/02 A3016 RMK AO2 SLP206 T00560022

More Conditions Fewer Conditions

10-Day Weather Forecast

Almanac

Astronomy

Dec. 26, 2014 Rise Set
Actual Time
Civil Twilight
Nautical Twilight
Astronomical Twilight
Moon
Length of Visible Light
Length of Day
Tomorrow will be .
, % of the Moon is Illuminated

Today's Extremes

State Highs State Lows

Community

WunderPhotos

Upload Photos

1,780,580 photos uploaded!

WunderBlogs® & News

Nearby

Air Quality

  Air Quality AQ Index Pollutant
Not available.

Snow Depth

Station Depth Elevation

Earthquake Activity

City Distance Mag. Time & Date
Minimum magnitude displayed is 2.5.

Coastal Water Temperatures

Place Temperature

Nearby Weather Stations